Time;durP1;ratioP1;P1;durP2;ratioP2;P2;SDS_P1;SDS_P2;PMS_P1;PMS_P2;Temp;Humidity;BMP_temperature;BMP_pressure;BME280_temperature;BME280_humidity;BME280_pressure;Samples;Min_cycle;Max_cycle;Signal;HPM_P1;HPM_P2
2022/07/29 00:01:24;;;;;;;5.43;3.88;;;;;;;;;;5037494;28;20104;-70
2022/07/29 00:03:50;;;;;;;6.50;4.00;;;;;;;;;;5031844;28;20044;-72
2022/07/29 00:06:16;;;;;;;12.48;3.88;;;;;;;;;;5031599;28;20041;-70
2022/07/29 00:08:42;;;;;;;7.95;3.47;;;;;;;;;;5037302;28;20033;-75
2022/07/29 00:11:08;;;;;;;7.63;3.65;;;;;;;;;;5035135;28;20030;-73
2022/07/29 00:13:34;;;;;;;8.20;3.70;;;;;;;;;;5035260;28;20052;-73
2022/07/29 00:16:00;;;;;;;9.50;3.95;;;;;;;;;;5034292;28;20032;-70
2022/07/29 00:18:26;;;;;;;5.38;3.38;;;;;;;;;;5041877;28;20026;-72
2022/07/29 00:20:52;;;;;;;9.95;4.10;;;;;;;;;;5033579;28;20018;-74
2022/07/29 00:23:19;;;;;;;9.70;3.80;;;;;;;;;;5031410;28;20116;-73
2022/07/29 00:25:45;;;;;;;6.15;3.35;;;;;;;;;;5031791;28;20036;-71
2022/07/29 00:28:11;;;;;;;9.50;4.35;;;;;;;;;;5036454;28;20036;-70
2022/07/29 00:30:37;;;;;;;10.43;4.47;;;;;;;;;;5030977;28;20117;-72
2022/07/29 00:33:03;;;;;;;6.88;3.47;;;;;;;;;;5031520;28;20478;-74
2022/07/29 00:35:44;;;;;;;9.60;3.63;;;;;;;;;;5032485;28;20025;-73
2022/07/29 00:38:13;;;;;;;7.25;3.60;;;;;;;;;;5032329;28;20049;-73
2022/07/29 00:40:39;;;;;;;7.30;3.35;;;;;;;;;;5027429;28;20100;-70
2022/07/29 00:43:05;;;;;;;6.03;3.30;;;;;;;;;;5026157;28;20490;-70
2022/07/29 00:45:31;;;;;;;5.68;3.80;;;;;;;;;;5031793;28;20025;-74
2022/07/29 00:47:58;;;;;;;7.18;3.53;;;;;;;;;;5032676;28;20037;-72
2022/07/29 00:50:24;;;;;;;9.40;3.67;;;;;;;;;;5029457;28;20033;-73
2022/07/29 00:52:50;;;;;;;5.40;3.35;;;;;;;;;;5035201;28;20447;-70
2022/07/29 00:55:17;;;;;;;5.53;3.45;;;;;;;;;;5031889;28;20025;-73
2022/07/29 00:57:44;;;;;;;6.43;3.67;;;;;;;;;;5032734;28;20043;-70
2022/07/29 01:00:12;;;;;;;6.82;3.80;;;;;;;;;;5034400;28;20022;-73
2022/07/29 01:02:38;;;;;;;7.20;3.50;;;;;;;;;;5039320;28;20033;-70
2022/07/29 01:05:05;;;;;;;8.48;3.83;;;;;;;;;;5032345;28;20064;-74
2022/07/29 01:07:32;;;;;;;5.63;3.20;;;;;;;;;;5031641;28;20083;-72
2022/07/29 01:10:00;;;;;;;5.45;3.78;;;;;;;;;;5033391;28;20053;-75
2022/07/29 01:12:33;;;;;;;7.20;4.05;;;;;;;;;;5013516;28;20029;-72
2022/07/29 01:14:59;;;;;;;8.13;3.88;;;;;;;;;;5033427;28;20056;-70
2022/07/29 01:17:44;;;;;;;5.63;3.70;;;;;;;;;;5035204;28;20040;-72
2022/07/29 01:20:11;;;;;;;7.78;4.00;;;;;;;;;;5037616;28;20085;-69
2022/07/29 01:22:43;;;;;;;5.47;3.80;;;;;;;;;;5033901;28;20022;-74
2022/07/29 01:25:15;;;;;;;6.95;3.75;;;;;;;;;;5027026;28;20380;-73
2022/07/29 01:27:50;;;;;;;7.68;3.50;;;;;;;;;;5036221;28;20036;-74
2022/07/29 01:30:16;;;;;;;5.22;3.80;;;;;;;;;;5037483;28;20034;-74
2022/07/29 01:32:43;;;;;;;5.00;3.45;;;;;;;;;;5034948;28;20104;-73
2022/07/29 01:35:24;;;;;;;6.25;3.95;;;;;;;;;;5037151;28;20029;-69
2022/07/29 01:37:58;;;;;;;11.18;4.10;;;;;;;;;;5043550;28;20188;-71
2022/07/29 01:40:27;;;;;;;15.10;4.05;;;;;;;;;;5030431;28;20053;-74
2022/07/29 01:42:54;;;;;;;8.38;3.92;;;;;;;;;;5048359;28;20057;-75
2022/07/29 01:45:23;;;;;;;7.05;4.35;;;;;;;;;;5035540;28;20022;-74
2022/07/29 01:48:02;;;;;;;7.30;3.65;;;;;;;;;;5042785;28;20041;-70
2022/07/29 01:50:41;;;;;;;5.85;4.10;;;;;;;;;;5037568;28;20022;-70
2022/07/29 01:53:09;;;;;;;6.30;3.95;;;;;;;;;;5028556;28;20029;-70
2022/07/29 01:55:40;;;;;;;9.05;4.40;;;;;;;;;;5036326;28;20029;-71
2022/07/29 01:58:07;;;;;;;5.05;3.55;;;;;;;;;;5037689;28;20025;-71
2022/07/29 02:00:34;;;;;;;6.40;4.13;;;;;;;;;;5036985;28;20052;-71
2022/07/29 02:03:06;;;;;;;9.63;3.67;;;;;;;;;;5037022;28;20040;-70
2022/07/29 02:05:33;;;;;;;5.57;3.30;;;;;;;;;;5034808;28;20025;-73
2022/07/29 02:07:59;;;;;;;10.93;4.35;;;;;;;;;;5035104;28;20124;-71
2022/07/29 02:10:28;;;;;;;8.68;3.70;;;;;;;;;;5036794;28;20018;-72
2022/07/29 02:12:55;;;;;;;7.20;4.22;;;;;;;;;;5037253;28;20025;-73
2022/07/29 02:15:23;;;;;;;6.32;3.75;;;;;;;;;;5035003;28;20052;-73
2022/07/29 02:18:09;;;;;;;5.43;3.60;;;;;;;;;;5036935;28;20112;-73
2022/07/29 02:20:36;;;;;;;6.07;4.05;;;;;;;;;;5045818;28;20017;-69
2022/07/29 02:23:03;;;;;;;5.80;3.65;;;;;;;;;;5036150;28;20033;-74
2022/07/29 02:25:30;;;;;;;8.38;3.53;;;;;;;;;;5040614;28;20037;-74
2022/07/29 02:27:56;;;;;;;5.72;3.60;;;;;;;;;;5020002;28;20048;-73
2022/07/29 02:30:23;;;;;;;6.25;3.65;;;;;;;;;;5035577;28;20033;-73
2022/07/29 02:32:50;;;;;;;6.40;3.95;;;;;;;;;;5036497;28;20081;-71
2022/07/29 02:35:16;;;;;;;10.38;4.10;;;;;;;;;;5038461;28;20026;-74
2022/07/29 02:37:44;;;;;;;9.02;5.13;;;;;;;;;;5025325;28;20541;-70
2022/07/29 02:40:15;;;;;;;8.45;4.95;;;;;;;;;;5035865;28;20117;-72
2022/07/29 02:42:42;;;;;;;8.57;4.30;;;;;;;;;;5036408;28;20033;-72
2022/07/29 02:45:09;;;;;;;9.20;4.18;;;;;;;;;;5036449;28;20075;-72
2022/07/29 02:47:37;;;;;;;8.77;4.53;;;;;;;;;;5035008;28;20033;-75
2022/07/29 02:50:16;;;;;;;7.63;5.28;;;;;;;;;;5036183;28;20028;-69
2022/07/29 02:52:45;;;;;;;12.57;6.25;;;;;;;;;;5034566;28;20033;-70
2022/07/29 02:55:26;;;;;;;14.40;6.82;;;;;;;;;;5037473;28;20017;-74
2022/07/29 02:58:22;;;;;;;11.48;6.38;;;;;;;;;;5040145;28;20021;-70
2022/07/29 03:00:49;;;;;;;16.60;7.72;;;;;;;;;;4994385;28;20052;-74
2022/07/29 03:03:16;;;;;;;12.48;6.78;;;;;;;;;;4992038;28;20116;-69
2022/07/29 03:05:42;;;;;;;8.95;5.70;;;;;;;;;;4994573;28;20040;-69
2022/07/29 03:08:10;;;;;;;8.60;5.45;;;;;;;;;;4997498;28;20082;-70
2022/07/29 03:10:38;;;;;;;10.23;5.95;;;;;;;;;;4993987;28;20161;-73
2022/07/29 03:13:05;;;;;;;8.93;5.57;;;;;;;;;;4993722;28;20105;-71
2022/07/29 03:15:31;;;;;;;10.60;5.82;;;;;;;;;;4994762;28;20034;-72
2022/07/29 03:17:58;;;;;;;12.30;6.20;;;;;;;;;;4994394;28;20039;-72
2022/07/29 03:20:25;;;;;;;12.18;7.10;;;;;;;;;;4994073;28;20057;-74
2022/07/29 03:22:51;;;;;;;14.25;6.47;;;;;;;;;;4993683;28;20089;-72
2022/07/29 03:25:18;;;;;;;7.82;5.32;;;;;;;;;;4994254;28;20174;-73
2022/07/29 03:27:45;;;;;;;10.70;5.40;;;;;;;;;;4993694;28;20069;-73
2022/07/29 03:30:12;;;;;;;13.32;6.18;;;;;;;;;;4991585;28;20038;-70
2022/07/29 03:32:38;;;;;;;11.10;6.20;;;;;;;;;;4993658;28;20030;-70
2022/07/29 03:35:05;;;;;;;9.10;6.05;;;;;;;;;;4992808;28;20027;-73
2022/07/29 03:37:42;;;;;;;7.63;5.45;;;;;;;;;;5015998;28;20099;-73
2022/07/29 03:40:09;;;;;;;8.30;4.75;;;;;;;;;;5034542;28;20029;-70
2022/07/29 03:42:37;;;;;;;38.33;6.85;;;;;;;;;;5034463;28;20036;-74
2022/07/29 03:45:05;;;;;;;17.58;5.50;;;;;;;;;;5033212;28;20025;-74
2022/07/29 03:47:33;;;;;;;10.63;5.60;;;;;;;;;;5039594;28;20032;-72
2022/07/29 03:50:05;;;;;;;5.93;4.03;;;;;;;;;;5040399;28;20509;-69
2022/07/29 03:52:32;;;;;;;8.05;3.78;;;;;;;;;;5034198;28;20032;-70
2022/07/29 03:54:58;;;;;;;5.80;4.15;;;;;;;;;;5033738;28;20042;-69
2022/07/29 03:57:25;;;;;;;7.65;4.20;;;;;;;;;;5034222;28;20029;-73
2022/07/29 03:59:54;;;;;;;10.35;5.07;;;;;;;;;;5037707;28;20081;-74
2022/07/29 04:02:21;;;;;;;6.80;4.15;;;;;;;;;;5020562;28;20029;-70
2022/07/29 04:04:47;;;;;;;8.98;4.28;;;;;;;;;;5033431;28;20021;-72
2022/07/29 04:07:14;;;;;;;8.80;4.05;;;;;;;;;;5031593;28;20037;-70
2022/07/29 04:09:41;;;;;;;8.93;4.22;;;;;;;;;;5026031;28;20026;-69
2022/07/29 04:12:07;;;;;;;6.47;3.90;;;;;;;;;;5033828;28;20018;-73
2022/07/29 04:14:33;;;;;;;9.98;4.20;;;;;;;;;;5030526;28;20112;-74
2022/07/29 04:17:00;;;;;;;12.32;4.03;;;;;;;;;;5029336;28;20095;-70
2022/07/29 04:19:26;;;;;;;13.82;4.93;;;;;;;;;;5028936;28;20017;-70
2022/07/29 04:21:52;;;;;;;7.40;4.43;;;;;;;;;;5035113;28;20036;-71
2022/07/29 04:24:18;;;;;;;20.60;4.70;;;;;;;;;;5036595;28;20025;-74
2022/07/29 04:26:45;;;;;;;15.00;4.93;;;;;;;;;;5018795;28;20028;-74
2022/07/29 04:29:11;;;;;;;11.23;4.40;;;;;;;;;;5036949;28;20091;-75
2022/07/29 04:31:38;;;;;;;9.20;4.70;;;;;;;;;;5026362;28;20453;-79
2022/07/29 04:34:04;;;;;;;21.70;4.80;;;;;;;;;;5031666;28;20420;-76
2022/07/29 04:36:30;;;;;;;12.68;4.80;;;;;;;;;;5033115;28;20467;-78
2022/07/29 04:38:57;;;;;;;11.77;4.82;;;;;;;;;;5013812;28;20487;-74
2022/07/29 04:41:23;;;;;;;8.98;5.07;;;;;;;;;;5011273;28;20080;-76
2022/07/29 04:43:49;;;;;;;12.80;5.78;;;;;;;;;;5013193;28;20037;-74
2022/07/29 04:46:15;;;;;;;21.98;5.35;;;;;;;;;;5014974;28;20029;-83
2022/07/29 04:48:42;;;;;;;16.60;4.75;;;;;;;;;;5012769;28;20618;-70
2022/07/29 04:51:08;;;;;;;14.45;4.88;;;;;;;;;;5009465;28;20052;-70
2022/07/29 04:53:34;;;;;;;18.58;5.28;;;;;;;;;;5012472;28;20051;-77
2022/07/29 04:56:00;;;;;;;14.48;5.82;;;;;;;;;;5011837;28;20014;-73
2022/07/29 04:58:26;;;;;;;20.48;5.50;;;;;;;;;;5010383;28;20026;-73
2022/07/29 05:00:52;;;;;;;13.98;5.65;;;;;;;;;;5013764;28;20052;-79
2022/07/29 05:03:18;;;;;;;15.45;5.35;;;;;;;;;;5013608;28;20041;-75
2022/07/29 05:05:44;;;;;;;11.63;5.63;;;;;;;;;;5012167;28;20079;-70
2022/07/29 05:08:10;;;;;;;16.25;5.72;;;;;;;;;;5013103;28;20068;-68
2022/07/29 05:10:37;;;;;;;15.90;5.30;;;;;;;;;;5009193;28;20487;-72
2022/07/29 05:13:12;;;;;;;6.95;4.40;;;;;;;;;;5012006;28;20466;-68
2022/07/29 05:15:43;;;;;;;12.50;4.93;;;;;;;;;;4993175;28;20503;-72
2022/07/29 05:18:16;;;;;;;12.02;5.35;;;;;;;;;;5009876;28;20034;-69
2022/07/29 05:20:42;;;;;;;6.70;4.22;;;;;;;;;;4993124;28;20025;-70
2022/07/29 05:23:09;;;;;;;10.98;4.72;;;;;;;;;;5017606;28;20022;-69
2022/07/29 05:25:35;;;;;;;6.65;4.50;;;;;;;;;;5021570;28;20029;-73
2022/07/29 05:28:01;;;;;;;16.60;4.72;;;;;;;;;;4993885;28;20060;-69
2022/07/29 05:30:27;;;;;;;13.73;4.82;;;;;;;;;;5012625;28;20045;-69
2022/07/29 05:32:53;;;;;;;12.85;5.10;;;;;;;;;;5014199;28;20038;-68
2022/07/29 05:35:19;;;;;;;12.18;4.97;;;;;;;;;;4992462;28;20113;-69
2022/07/29 05:37:45;;;;;;;9.23;5.32;;;;;;;;;;5017455;28;20050;-68
2022/07/29 05:40:11;;;;;;;9.48;5.43;;;;;;;;;;5029292;28;20100;-70
2022/07/29 05:42:38;;;;;;;13.30;5.53;;;;;;;;;;5026991;28;20034;-68
2022/07/29 05:45:04;;;;;;;11.23;4.00;;;;;;;;;;5030401;28;20486;-69
2022/07/29 05:47:31;;;;;;;7.60;3.83;;;;;;;;;;5010337;28;20037;-69
2022/07/29 05:49:57;;;;;;;11.20;4.20;;;;;;;;;;5012155;28;20082;-73
2022/07/29 05:52:23;;;;;;;8.85;4.20;;;;;;;;;;5030208;28;20048;-75
2022/07/29 05:54:49;;;;;;;18.75;5.22;;;;;;;;;;5030690;28;20123;-69
2022/07/29 05:57:16;;;;;;;12.70;4.68;;;;;;;;;;5030313;28;20021;-69
2022/07/29 05:59:42;;;;;;;13.95;4.57;;;;;;;;;;5029916;28;20123;-71
2022/07/29 06:02:09;;;;;;;9.90;4.45;;;;;;;;;;5028257;28;20021;-70
2022/07/29 06:04:35;;;;;;;10.40;4.60;;;;;;;;;;5031982;28;20100;-69
2022/07/29 06:07:01;;;;;;;9.95;4.75;;;;;;;;;;5033174;28;20021;-69
2022/07/29 06:09:27;;;;;;;10.60;4.68;;;;;;;;;;5034767;28;20036;-71
2022/07/29 06:11:53;;;;;;;10.55;4.50;;;;;;;;;;5033785;28;20037;-69
2022/07/29 06:14:19;;;;;;;9.32;4.13;;;;;;;;;;5033414;28;20029;-67
2022/07/29 06:16:46;;;;;;;26.73;5.55;;;;;;;;;;5033443;28;20017;-68
2022/07/29 06:19:13;;;;;;;8.45;4.03;;;;;;;;;;5035141;28;20029;-68
2022/07/29 06:21:43;;;;;;;7.72;3.85;;;;;;;;;;5016733;28;20475;-68
2022/07/29 06:24:19;;;;;;;8.55;4.25;;;;;;;;;;5035027;28;20021;-68
2022/07/29 06:26:45;;;;;;;6.15;3.80;;;;;;;;;;5016373;28;20034;-68
2022/07/29 06:29:12;;;;;;;5.28;3.85;;;;;;;;;;5017268;28;20038;-68
2022/07/29 06:31:38;;;;;;;7.15;3.92;;;;;;;;;;5016233;28;20025;-71
2022/07/29 06:34:09;;;;;;;12.25;4.70;;;;;;;;;;5034891;28;20037;-70
2022/07/29 06:36:36;;;;;;;10.18;4.32;;;;;;;;;;5033943;28;20108;-71
2022/07/29 06:39:06;;;;;;;13.43;4.63;;;;;;;;;;5039869;28;20049;-71
2022/07/29 06:41:36;;;;;;;6.47;4.72;;;;;;;;;;5040591;28;20028;-70
2022/07/29 06:44:02;;;;;;;5.55;4.10;;;;;;;;;;5034018;28;20033;-70
2022/07/29 06:46:31;;;;;;;10.25;4.95;;;;;;;;;;5029835;28;20395;-71
2022/07/29 06:48:58;;;;;;;7.93;5.22;;;;;;;;;;5015859;28;20034;-70
2022/07/29 06:51:24;;;;;;;8.30;5.35;;;;;;;;;;5040709;28;20025;-72
2022/07/29 06:53:52;;;;;;;6.68;4.93;;;;;;;;;;5035765;28;20521;-72
2022/07/29 06:56:18;;;;;;;9.43;5.20;;;;;;;;;;5034103;28;20017;-71
2022/07/29 06:58:44;;;;;;;12.02;4.97;;;;;;;;;;5041039;28;20066;-71
2022/07/29 07:01:10;;;;;;;11.68;4.80;;;;;;;;;;5035776;28;20041;-71
2022/07/29 07:03:36;;;;;;;13.90;5.03;;;;;;;;;;5016507;28;20025;-71
2022/07/29 07:06:03;;;;;;;16.08;4.55;;;;;;;;;;5037133;28;20134;-70
2022/07/29 07:08:29;;;;;;;8.15;4.72;;;;;;;;;;5031464;28;20029;-71
2022/07/29 07:11:07;;;;;;;;;;;;;;;;;;;;;
2022/07/29 07:13:37;;;;;;;89.65;14.07;;;;;;;;;;5039342;28;20029;-73
2022/07/29 07:16:04;;;;;;;6.40;4.15;;;;;;;;;;5037296;28;20021;-71
2022/07/29 07:18:30;;;;;;;55.13;8.68;;;;;;;;;;5033559;28;20134;-74
2022/07/29 07:20:57;;;;;;;42.10;7.18;;;;;;;;;;5033582;28;20026;-72
2022/07/29 07:23:23;;;;;;;8.05;4.55;;;;;;;;;;5042031;28;20064;-74
2022/07/29 07:25:49;;;;;;;18.40;4.43;;;;;;;;;;5029096;28;20037;-73
2022/07/29 07:28:33;;;;;;;22.83;6.25;;;;;;;;;;5032262;28;20120;-70
2022/07/29 07:31:00;;;;;;;7.22;4.65;;;;;;;;;;5029183;28;20079;-69
2022/07/29 07:33:26;;;;;;;8.30;4.50;;;;;;;;;;5031357;28;20025;-71
2022/07/29 07:35:52;;;;;;;8.50;4.78;;;;;;;;;;5035619;28;20032;-72
2022/07/29 07:38:18;;;;;;;47.95;7.15;;;;;;;;;;5026638;28;20057;-70
2022/07/29 07:40:46;;;;;;;23.60;6.70;;;;;;;;;;5038724;28;20154;-75
2022/07/29 07:43:12;;;;;;;16.50;6.35;;;;;;;;;;5033524;28;20049;-72
2022/07/29 07:45:39;;;;;;;9.88;5.72;;;;;;;;;;5032384;28;20024;-82
2022/07/29 07:48:09;;;;;;;27.63;6.10;;;;;;;;;;5032938;28;20048;-72
2022/07/29 07:50:39;;;;;;;7.32;4.72;;;;;;;;;;5048357;28;20036;-73
2022/07/29 07:53:09;;;;;;;20.42;6.10;;;;;;;;;;5035903;28;20041;-77
2022/07/29 07:55:39;;;;;;;59.05;11.70;;;;;;;;;;5026556;28;20489;-74
2022/07/29 07:58:05;;;;;;;17.70;5.60;;;;;;;;;;5031313;28;20031;-73
2022/07/29 08:00:32;;;;;;;17.35;5.38;;;;;;;;;;5037575;28;20033;-74
2022/07/29 08:03:01;;;;;;;6.93;4.10;;;;;;;;;;5035230;28;20029;-75
2022/07/29 08:05:27;;;;;;;5.40;4.30;;;;;;;;;;5032208;28;20040;-73
2022/07/29 08:07:53;;;;;;;6.85;4.18;;;;;;;;;;5034962;28;20387;-75
2022/07/29 08:13:05;;;;;;;4.90;4.03;;;;;;;;;;5032132;28;20036;-73
2022/07/29 08:15:32;;;;;;;9.30;4.38;;;;;;;;;;5029941;28;20116;-73
2022/07/29 08:18:05;;;;;;;7.43;4.30;;;;;;;;;;5030036;28;20136;-70
2022/07/29 08:20:35;;;;;;;10.43;4.95;;;;;;;;;;5043434;28;20029;-71
2022/07/29 08:23:01;;;;;;;10.52;5.20;;;;;;;;;;5032657;28;20080;-71
2022/07/29 08:25:38;;;;;;;6.28;5.03;;;;;;;;;;5038812;28;20072;-68
2022/07/29 08:28:07;;;;;;;20.02;5.80;;;;;;;;;;5037594;28;20041;-68
2022/07/29 08:30:33;;;;;;;10.90;7.22;;;;;;;;;;5029210;28;20067;-69
2022/07/29 08:33:05;;;;;;;9.30;5.68;;;;;;;;;;5029053;28;20041;-67
2022/07/29 08:35:34;;;;;;;16.77;6.13;;;;;;;;;;5027921;28;20037;-67
2022/07/29 08:38:00;;;;;;;8.65;5.68;;;;;;;;;;5017809;28;20049;-70
2022/07/29 08:40:26;;;;;;;9.05;5.10;;;;;;;;;;5007776;28;20022;-67
2022/07/29 08:42:52;;;;;;;10.93;5.88;;;;;;;;;;5006612;28;20045;-67
2022/07/29 08:45:18;;;;;;;7.95;4.95;;;;;;;;;;5012810;28;20166;-67
2022/07/29 08:47:45;;;;;;;25.95;6.15;;;;;;;;;;5012884;28;20088;-67
2022/07/29 08:50:14;;;;;;;11.05;5.20;;;;;;;;;;5014315;28;20026;-67
2022/07/29 08:52:41;;;;;;;7.80;5.30;;;;;;;;;;5003690;28;20022;-67
2022/07/29 08:55:09;;;;;;;6.60;4.50;;;;;;;;;;5012643;28;20025;-68
2022/07/29 08:57:36;;;;;;;11.45;5.28;;;;;;;;;;5012572;28;20036;-67
2022/07/29 09:00:04;;;;;;;9.50;5.63;;;;;;;;;;5012190;28;20089;-67
2022/07/29 09:02:34;;;;;;;14.65;5.43;;;;;;;;;;5011203;28;20038;-67
2022/07/29 09:05:01;;;;;;;9.32;5.35;;;;;;;;;;5012425;28;20109;-67
2022/07/29 09:07:27;;;;;;;9.00;5.63;;;;;;;;;;5009732;28;20380;-67
2022/07/29 09:09:53;;;;;;;9.07;4.90;;;;;;;;;;4998589;28;20030;-68
2022/07/29 09:12:22;;;;;;;7.53;5.10;;;;;;;;;;5019828;28;20388;-67
2022/07/29 09:14:48;;;;;;;9.18;5.28;;;;;;;;;;4996772;28;20066;-67
2022/07/29 09:17:16;;;;;;;6.05;5.03;;;;;;;;;;4982468;28;20125;-70
2022/07/29 09:19:42;;;;;;;9.02;5.93;;;;;;;;;;5012606;28;20073;-67
2022/07/29 09:22:09;;;;;;;7.20;5.15;;;;;;;;;;5021096;28;20032;-67
2022/07/29 09:24:46;;;;;;;9.10;5.43;;;;;;;;;;5016862;28;20030;-67
2022/07/29 09:27:12;;;;;;;9.30;5.40;;;;;;;;;;5018998;28;20120;-67
2022/07/29 09:29:38;;;;;;;8.13;5.47;;;;;;;;;;5017901;28;20036;-67
2022/07/29 09:32:07;;;;;;;9.43;5.60;;;;;;;;;;5015208;28;20022;-67
2022/07/29 09:34:33;;;;;;;35.78;6.38;;;;;;;;;;5013644;28;20483;-67
2022/07/29 09:36:59;;;;;;;10.40;5.40;;;;;;;;;;5010390;28;20092;-67
2022/07/29 09:39:46;;;;;;;9.65;6.15;;;;;;;;;;5035026;28;20131;-67
2022/07/29 09:42:13;;;;;;;11.65;5.50;;;;;;;;;;5027030;28;20025;-67
2022/07/29 09:44:42;;;;;;;6.78;5.20;;;;;;;;;;5035124;28;20048;-67
2022/07/29 09:47:08;;;;;;;17.00;5.90;;;;;;;;;;5035721;28;20029;-67
2022/07/29 09:49:53;;;;;;;8.93;6.20;;;;;;;;;;5038026;28;20060;-67
2022/07/29 09:52:22;;;;;;;9.15;5.70;;;;;;;;;;5044017;28;20064;-68
2022/07/29 09:54:48;;;;;;;6.43;5.82;;;;;;;;;;5017135;28;20438;-67
2022/07/29 09:57:25;;;;;;;7.22;5.70;;;;;;;;;;5035330;28;20067;-66
2022/07/29 09:59:59;;;;;;;18.50;6.28;;;;;;;;;;5017799;28;20044;-67
2022/07/29 10:02:29;;;;;;;14.35;6.13;;;;;;;;;;5035593;28;20017;-66
2022/07/29 10:04:55;;;;;;;7.93;5.75;;;;;;;;;;5034618;28;20075;-68
2022/07/29 10:07:22;;;;;;;10.40;6.13;;;;;;;;;;5033407;28;20497;-70
2022/07/29 10:09:55;;;;;;;8.77;5.60;;;;;;;;;;5035766;28;20491;-70
2022/07/29 10:12:21;;;;;;;37.05;8.13;;;;;;;;;;5035101;28;20028;-69
2022/07/29 10:14:48;;;;;;;8.43;5.60;;;;;;;;;;5040338;28;20041;-69
2022/07/29 10:17:14;;;;;;;7.40;5.50;;;;;;;;;;5023398;28;20034;-70
2022/07/29 10:19:42;;;;;;;9.55;5.40;;;;;;;;;;5034797;28;20025;-69
2022/07/29 10:22:08;;;;;;;7.47;5.38;;;;;;;;;;5021015;28;20026;-69
2022/07/29 10:24:35;;;;;;;11.43;5.55;;;;;;;;;;5053975;28;20025;-68
2022/07/29 10:27:02;;;;;;;9.18;5.07;;;;;;;;;;5034164;28;20112;-70
2022/07/29 10:29:31;;;;;;;6.07;5.30;;;;;;;;;;5041713;28;20091;-70
2022/07/29 10:32:07;;;;;;;11.32;5.55;;;;;;;;;;5044786;28;20032;-70
2022/07/29 10:34:52;;;;;;;7.32;5.20;;;;;;;;;;5029132;28;20028;-70
2022/07/29 10:37:28;;;;;;;10.95;5.80;;;;;;;;;;5030510;28;20141;-70
2022/07/29 10:41:25;;;;;;;9.60;6.25;;;;;;;;;;5038500;28;20518;-69
2022/07/29 10:42:50;;;;;;;8.55;5.72;;;;;;;;;;5039560;28;20044;-70
2022/07/29 10:45:17;;;;;;;8.95;5.68;;;;;;;;;;5046715;28;20417;-69
2022/07/29 10:47:43;;;;;;;11.98;5.70;;;;;;;;;;5033816;28;20458;-69
2022/07/29 10:50:10;;;;;;;8.52;5.43;;;;;;;;;;5031953;28;20079;-70
2022/07/29 10:52:52;;;;;;;7.38;5.60;;;;;;;;;;5040597;28;20482;-70
2022/07/29 10:55:39;;;;;;;10.87;6.07;;;;;;;;;;5028028;28;20490;-70
2022/07/29 10:58:13;;;;;;;6.65;5.50;;;;;;;;;;5028993;28;20022;-71
2022/07/29 11:00:39;;;;;;;9.40;5.85;;;;;;;;;;5038501;28;20083;-72
2022/07/29 11:03:07;;;;;;;9.10;5.63;;;;;;;;;;5031974;28;20084;-71
2022/07/29 11:05:57;;;;;;;7.80;6.20;;;;;;;;;;5015690;28;20492;-76
2022/07/29 11:08:23;;;;;;;9.07;6.40;;;;;;;;;;4949077;28;20071;-74
2022/07/29 11:10:50;;;;;;;8.23;5.97;;;;;;;;;;4949926;29;20122;-76
2022/07/29 11:13:35;;;;;;;9.80;6.03;;;;;;;;;;4951678;28;20047;-75
2022/07/29 11:16:02;;;;;;;9.02;6.55;;;;;;;;;;4952631;29;20054;-73
2022/07/29 11:18:28;;;;;;;7.60;5.80;;;;;;;;;;4951164;28;20027;-78
2022/07/29 11:20:54;;;;;;;7.80;6.07;;;;;;;;;;4951553;28;20039;-82
2022/07/29 11:23:28;;;;;;;35.45;7.93;;;;;;;;;;4950030;28;20433;-75
2022/07/29 11:26:10;;;;;;;9.77;6.43;;;;;;;;;;4950222;28;20035;-75
2022/07/29 11:28:57;;;;;;;7.38;6.30;;;;;;;;;;4955916;28;20051;-69
2022/07/29 11:31:32;;;;;;;8.77;6.63;;;;;;;;;;4948685;29;20030;-68
2022/07/29 11:34:16;;;;;;;7.00;6.22;;;;;;;;;;4950384;28;20039;-75
2022/07/29 11:37:02;;;;;;;10.13;6.53;;;;;;;;;;4946813;28;20122;-72
2022/07/29 11:39:31;;;;;;;9.75;6.55;;;;;;;;;;4937097;28;20042;-75
2022/07/29 11:42:16;;;;;;;9.10;6.60;;;;;;;;;;4938988;28;20118;-72
2022/07/29 11:45:01;;;;;;;11.63;6.88;;;;;;;;;;4971066;28;20048;-77
2022/07/29 11:47:28;;;;;;;7.13;6.32;;;;;;;;;;5028202;28;20063;-68
2022/07/29 11:49:56;;;;;;;11.50;6.50;;;;;;;;;;5026460;28;20038;-72
2022/07/29 11:52:23;;;;;;;8.40;6.78;;;;;;;;;;5027535;28;20166;-72
2022/07/29 11:54:50;;;;;;;12.18;6.32;;;;;;;;;;5025861;28;20553;-69
2022/07/29 11:57:20;;;;;;;7.57;6.45;;;;;;;;;;5026002;28;20030;-75
2022/07/29 11:59:47;;;;;;;11.20;6.50;;;;;;;;;;5030598;28;20064;-72
2022/07/29 12:02:13;;;;;;;6.68;5.97;;;;;;;;;;5033152;28;20553;-70
2022/07/29 12:04:55;;;;;;;8.27;6.75;;;;;;;;;;5029956;28;20037;-69
2022/07/29 12:07:28;;;;;;;9.40;6.60;;;;;;;;;;5031586;28;20029;-69
2022/07/29 12:09:54;;;;;;;;;;;;;;;;;;5030247;28;20022;-69
2022/07/29 12:12:20;;;;;;;11.32;6.60;;;;;;;;;;5014575;28;19916;-70
2022/07/29 12:14:55;;;;;;;10.27;6.35;;;;;;;;;;5026546;28;20433;-67
2022/07/29 12:17:28;;;;;;;7.45;6.70;;;;;;;;;;5013307;28;20567;-67
2022/07/29 12:19:55;;;;;;;11.00;7.40;;;;;;;;;;5032268;28;20048;-70
2022/07/29 12:22:34;;;;;;;8.95;6.32;;;;;;;;;;5032681;28;20476;-71
2022/07/29 12:25:04;;;;;;;10.98;6.70;;;;;;;;;;5030915;28;20033;-71
2022/07/29 12:27:31;;;;;;;9.60;6.40;;;;;;;;;;5027893;28;20076;-70
2022/07/29 12:30:00;;;;;;;12.23;6.47;;;;;;;;;;5037600;28;20032;-72
2022/07/29 12:32:36;;;;;;;9.13;6.65;;;;;;;;;;5029304;28;20036;-75
2022/07/29 12:35:07;;;;;;;19.75;7.63;;;;;;;;;;5013118;28;20112;-71
2022/07/29 12:37:38;;;;;;;8.63;6.43;;;;;;;;;;5031576;28;20051;-74
2022/07/29 12:40:05;;;;;;;10.25;6.60;;;;;;;;;;5030553;28;20053;-71
2022/07/29 12:42:31;;;;;;;10.52;6.28;;;;;;;;;;5031982;28;20029;-71
2022/07/29 12:44:57;;;;;;;10.95;6.95;;;;;;;;;;5029285;28;20545;-71
2022/07/29 12:47:24;;;;;;;10.00;6.82;;;;;;;;;;5029690;28;20038;-78
2022/07/29 12:50:14;;;;;;;9.57;7.47;;;;;;;;;;5022408;28;20594;-73
2022/07/29 12:52:41;;;;;;;12.00;7.10;;;;;;;;;;5037741;28;20026;-69
2022/07/29 12:55:07;;;;;;;7.97;7.18;;;;;;;;;;5010972;28;20545;-69
2022/07/29 12:57:58;;;;;;;8.75;6.57;;;;;;;;;;5030523;28;20927;-69
2022/07/29 13:00:25;;;;;;;8.38;7.10;;;;;;;;;;4999162;28;20042;-70
2022/07/29 13:02:58;;;;;;;7.95;6.90;;;;;;;;;;4995977;28;20512;-70
2022/07/29 13:05:44;;;;;;;9.07;6.97;;;;;;;;;;4987065;28;20482;-70
2022/07/29 13:08:19;;;;;;;7.15;6.45;;;;;;;;;;4986568;28;20042;-69
2022/07/29 13:10:48;;;;;;;9.70;6.40;;;;;;;;;;4986550;28;20034;-69
2022/07/29 13:13:15;;;;;;;7.78;6.78;;;;;;;;;;4994552;28;20034;-70
2022/07/29 13:15:42;;;;;;;12.05;6.85;;;;;;;;;;4971990;28;20110;-69
2022/07/29 13:18:27;;;;;;;7.75;6.97;;;;;;;;;;4989576;28;20039;-69
2022/07/29 13:21:04;;;;;;;7.65;6.85;;;;;;;;;;4981575;28;20080;-69
2022/07/29 13:23:30;;;;;;;8.13;6.90;;;;;;;;;;4989873;28;20077;-69
2022/07/29 13:26:08;;;;;;;11.25;7.13;;;;;;;;;;4989977;28;20030;-70
2022/07/29 13:28:36;;;;;;;10.30;6.90;;;;;;;;;;4987246;28;20058;-69
2022/07/29 13:31:11;;;;;;;12.88;7.22;;;;;;;;;;4987105;28;20121;-71
2022/07/29 13:33:45;;;;;;;13.73;7.75;;;;;;;;;;4989628;28;20166;-71
2022/07/29 13:36:21;;;;;;;8.10;6.72;;;;;;;;;;5001814;28;20034;-68
2022/07/29 13:38:48;;;;;;;9.85;7.40;;;;;;;;;;5009217;28;20064;-73
2022/07/29 13:41:17;;;;;;;8.57;7.18;;;;;;;;;;5033539;28;20025;-70
2022/07/29 13:43:44;;;;;;;8.52;7.20;;;;;;;;;;5029886;28;20030;-69
2022/07/29 13:46:10;;;;;;;8.60;7.25;;;;;;;;;;5032612;28;20494;-68
2022/07/29 13:48:38;;;;;;;7.70;6.78;;;;;;;;;;5012911;28;20406;-69
2022/07/29 13:51:07;;;;;;;9.93;7.07;;;;;;;;;;5010236;28;20121;-70
2022/07/29 13:53:33;;;;;;;8.05;7.03;;;;;;;;;;5026670;28;20508;-70
2022/07/29 13:56:00;;;;;;;7.70;6.97;;;;;;;;;;5028587;28;20056;-69
2022/07/29 13:58:26;;;;;;;9.27;7.35;;;;;;;;;;5014351;28;20033;-71
2022/07/29 14:00:56;;;;;;;11.73;7.45;;;;;;;;;;5034911;28;20049;-71
2022/07/29 14:03:22;;;;;;;16.17;7.35;;;;;;;;;;5012600;28;20033;-69
2022/07/29 14:05:49;;;;;;;25.42;18.30;;;;;;;;;;5031035;28;20544;-68
2022/07/29 14:08:15;;;;;;;12.52;8.93;;;;;;;;;;5030538;28;20053;-72
2022/07/29 14:10:41;;;;;;;10.43;8.32;;;;;;;;;;5013119;28;20116;-71
2022/07/29 14:13:07;;;;;;;9.38;7.53;;;;;;;;;;5032946;28;20029;-69
2022/07/29 14:15:34;;;;;;;16.88;11.30;;;;;;;;;;5030175;28;20041;-68
2022/07/29 14:18:00;;;;;;;13.95;9.88;;;;;;;;;;5029395;28;21800;-71
2022/07/29 14:20:26;;;;;;;11.98;8.27;;;;;;;;;;5029594;28;20117;-70
2022/07/29 14:22:52;;;;;;;8.40;7.30;;;;;;;;;;5029266;28;20515;-69
2022/07/29 14:25:18;;;;;;;9.18;7.30;;;;;;;;;;5040106;28;20036;-68
2022/07/29 14:27:44;;;;;;;9.82;7.00;;;;;;;;;;5034097;28;20029;-68
2022/07/29 14:30:11;;;;;;;8.35;7.43;;;;;;;;;;5036614;28;20079;-69
2022/07/29 14:32:37;;;;;;;9.77;7.15;;;;;;;;;;5032467;28;20517;-68
2022/07/29 14:35:03;;;;;;;19.13;7.40;;;;;;;;;;5034323;28;20151;-68
2022/07/29 14:37:29;;;;;;;112.05;14.63;;;;;;;;;;5035605;28;20045;-73
2022/07/29 14:39:59;;;;;;;13.80;7.15;;;;;;;;;;5033192;28;20167;-71
2022/07/29 14:42:25;;;;;;;9.32;7.22;;;;;;;;;;5034443;28;20056;-72
2022/07/29 14:44:51;;;;;;;9.48;7.07;;;;;;;;;;5031363;28;20038;-69
2022/07/29 14:47:18;;;;;;;10.07;7.00;;;;;;;;;;5033321;28;20030;-69
2022/07/29 14:49:44;;;;;;;8.52;6.90;;;;;;;;;;5015878;28;20431;-70
2022/07/29 14:52:10;;;;;;;10.73;7.10;;;;;;;;;;5033237;28;20017;-78